sensor_id;sensor_type;location;lat;lon;timestamp;pressure;altitude;pressure_sealevel;temperature;humidity
57192;BME280;43052;52.588;13.396;2023-01-28T09:04:25;102450.22;;;1.33;70.52
57192;BME280;43052;52.588;13.396;2023-01-28T09:06:50;102461.09;;;1.58;71.06
57192;BME280;43052;52.588;13.396;2023-01-28T09:09:16;102453.97;;;1.83;70.57
57192;BME280;43052;52.588;13.396;2023-01-28T09:11:41;102463.34;;;2.13;69.55
57192;BME280;43052;52.588;13.396;2023-01-28T09:14:06;102448.44;;;2.39;68.62
57192;BME280;43052;52.588;13.396;2023-01-28T09:16:31;102460.75;;;2.59;67.78
57192;BME280;43052;52.588;13.396;2023-01-28T09:18:57;102466.84;;;2.76;67.11
57192;BME280;43052;52.588;13.396;2023-01-28T09:21:22;102462.31;;;2.89;66.03
57192;BME280;43052;52.588;13.396;2023-01-28T09:23:47;102457.56;;;2.96;64.58
57192;BME280;43052;52.588;13.396;2023-01-28T09:26:13;102472.41;;;3.01;63.93
57192;BME280;43052;52.588;13.396;2023-01-28T09:28:38;102475.47;;;3.10;63.18
57192;BME280;43052;52.588;13.396;2023-01-28T09:31:06;102468.31;;;3.21;62.79
57192;BME280;43052;52.588;13.396;2023-01-28T09:33:32;102466.34;;;3.33;62.10
57192;BME280;43052;52.588;13.396;2023-01-28T09:36:02;102471.13;;;3.42;61.40
57192;BME280;43052;52.588;13.396;2023-01-28T09:38:30;102476.03;;;3.54;61.06
57192;BME280;43052;52.588;13.396;2023-01-28T09:40:56;102471.81;;;3.56;60.93
57192;BME280;43052;52.588;13.396;2023-01-28T09:44:33;102471.88;;;3.57;60.21
57192;BME280;43052;52.588;13.396;2023-01-28T09:46:31;102476.50;;;3.63;60.04
57192;BME280;43052;52.588;13.396;2023-01-28T09:48:57;102480.28;;;3.70;59.60
57192;BME280;43052;52.588;13.396;2023-01-28T09:51:35;102474.88;;;3.65;58.77
57192;BME280;43052;52.588;13.396;2023-01-28T09:54:14;102477.13;;;3.59;58.69
57192;BME280;43052;52.588;13.396;2023-01-28T09:56:45;102485.88;;;3.61;58.72
57192;BME280;43052;52.588;13.396;2023-01-28T09:59:18;102482.72;;;3.67;58.29
57192;BME280;43052;52.588;13.396;2023-01-28T10:01:53;102483.59;;;3.67;57.75
57192;BME280;43052;52.588;13.396;2023-01-28T10:04:47;102474.78;;;3.64;57.43
57192;BME280;43052;52.588;13.396;2023-01-28T10:08:16;102484.63;;;3.71;57.60
57192;BME280;43052;52.588;13.396;2023-01-28T10:10:47;102479.25;;;3.84;58.43
57192;BME280;43052;52.588;13.396;2023-01-28T10:15:58;102465.38;;;4.00;57.14
57192;BME280;43052;52.588;13.396;2023-01-28T10:18:45;102465.44;;;4.02;56.43
57192;BME280;43052;52.588;13.396;2023-01-28T10:21:19;102478.69;;;4.08;56.20
57192;BME280;43052;52.588;13.396;2023-01-28T10:24:00;102467.75;;;4.14;55.84
57192;BME280;43052;52.588;13.396;2023-01-28T10:26:36;102462.13;;;4.22;55.53
57192;BME280;43052;52.588;13.396;2023-01-28T10:29:10;102459.75;;;4.27;55.38
57192;BME280;43052;52.588;13.396;2023-01-28T10:31:41;102460.78;;;4.31;55.21
57192;BME280;43052;52.588;13.396;2023-01-28T10:34:10;102453.91;;;4.31;55.17
57192;BME280;43052;52.588;13.396;2023-01-28T10:36:35;102455.88;;;4.37;54.69
57192;BME280;43052;52.588;13.396;2023-01-28T10:39:00;102459.44;;;4.39;54.58
57192;BME280;43052;52.588;13.396;2023-01-28T10:41:25;102462.31;;;4.45;54.17
57192;BME280;43052;52.588;13.396;2023-01-28T10:43:51;102452.00;;;4.47;54.13
57192;BME280;43052;52.588;13.396;2023-01-28T10:46:20;102453.72;;;4.46;53.82
57192;BME280;43052;52.588;13.396;2023-01-28T10:48:57;102454.53;;;4.45;53.79
57192;BME280;43052;52.588;13.396;2023-01-28T10:51:50;102454.91;;;4.35;53.52
57192;BME280;43052;52.588;13.396;2023-01-28T10:54:22;102450.06;;;4.23;53.70
57192;BME280;43052;52.588;13.396;2023-01-28T10:56:51;102450.94;;;4.23;53.73
57192;BME280;43052;52.588;13.396;2023-01-28T10:59:30;102448.28;;;4.22;53.34
57192;BME280;43052;52.588;13.396;2023-01-28T11:02:01;102457.00;;;4.24;53.49
57192;BME280;43052;52.588;13.396;2023-01-28T11:04:30;102453.44;;;4.22;53.15
57192;BME280;43052;52.588;13.396;2023-01-28T11:09:58;102453.53;;;3.87;53.66
57192;BME280;43052;52.588;13.396;2023-01-28T11:12:25;102448.50;;;3.90;53.61
57192;BME280;43052;52.588;13.396;2023-01-28T11:15:03;102454.13;;;4.00;53.45
57192;BME280;43052;52.588;13.396;2023-01-28T11:17:31;102456.34;;;4.10;53.71
57192;BME280;43052;52.588;13.396;2023-01-28T11:20:07;102448.50;;;4.08;53.35
57192;BME280;43052;52.588;13.396;2023-01-28T11:22:35;102441.41;;;4.04;53.32
57192;BME280;43052;52.588;13.396;2023-01-28T11:25:06;102444.06;;;4.06;53.19
57192;BME280;43052;52.588;13.396;2023-01-28T11:27:38;102441.84;;;4.14;53.23
57192;BME280;43052;52.588;13.396;2023-01-28T11:30:04;102436.81;;;4.17;53.25
57192;BME280;43052;52.588;13.396;2023-01-28T11:32:31;102440.22;;;4.16;53.17
57192;BME280;43052;52.588;13.396;2023-01-28T11:34:57;102441.03;;;4.15;53.42
57192;BME280;43052;52.588;13.396;2023-01-28T11:37:25;102426.16;;;4.11;53.14
57192;BME280;43052;52.588;13.396;2023-01-28T11:40:17;102426.91;;;4.08;53.29
57192;BME280;43052;52.588;13.396;2023-01-28T11:42:46;102424.25;;;4.06;53.51
57192;BME280;43052;52.588;13.396;2023-01-28T11:45:17;102418.03;;;4.03;53.64
57192;BME280;43052;52.588;13.396;2023-01-28T11:48:09;102413.06;;;4.07;53.66
57192;BME280;43052;52.588;13.396;2023-01-28T11:50:55;102415.66;;;4.07;53.68
57192;BME280;43052;52.588;13.396;2023-01-28T11:53:40;102413.81;;;4.05;53.67
57192;BME280;43052;52.588;13.396;2023-01-28T11:59:32;102415.97;;;3.96;53.93
57192;BME280;43052;52.588;13.396;2023-01-28T12:02:08;102410.78;;;3.96;54.07
57192;BME280;43052;52.588;13.396;2023-01-28T12:07:24;102407.06;;;3.90;54.24
57192;BME280;43052;52.588;13.396;2023-01-28T12:13:03;102413.06;;;3.89;54.23
57192;BME280;43052;52.588;13.396;2023-01-28T12:21:10;102400.66;;;3.82;54.44
57192;BME280;43052;52.588;13.396;2023-01-28T12:27:05;102400.13;;;3.89;54.88
57192;BME280;43052;52.588;13.396;2023-01-28T12:33:07;102404.66;;;3.94;54.71
57192;BME280;43052;52.588;13.396;2023-01-28T12:36:00;102393.31;;;3.91;54.57
57192;BME280;43052;52.588;13.396;2023-01-28T12:38:56;102395.84;;;3.90;54.65
57192;BME280;43052;52.588;13.396;2023-01-28T12:41:30;102394.81;;;3.86;54.86
57192;BME280;43052;52.588;13.396;2023-01-28T12:44:01;102393.84;;;3.84;54.61
57192;BME280;43052;52.588;13.396;2023-01-28T12:46:50;102385.06;;;3.81;54.67
57192;BME280;43052;52.588;13.396;2023-01-28T12:49:21;102387.69;;;3.82;54.68
57192;BME280;43052;52.588;13.396;2023-01-28T12:54:39;102390.31;;;3.64;54.49
57192;BME280;43052;52.588;13.396;2023-01-28T12:57:08;102390.66;;;3.54;54.67
57192;BME280;43052;52.588;13.396;2023-01-28T12:59:41;102386.56;;;3.41;54.96
57192;BME280;43052;52.588;13.396;2023-01-28T13:07:24;102370.00;;;3.37;55.18
57192;BME280;43052;52.588;13.396;2023-01-28T13:09:55;102361.59;;;3.41;54.97
57192;BME280;43052;52.588;13.396;2023-01-28T13:12:22;102356.84;;;3.51;55.02
57192;BME280;43052;52.588;13.396;2023-01-28T13:14:48;102355.88;;;3.49;55.21
57192;BME280;43052;52.588;13.396;2023-01-28T13:17:29;102357.09;;;3.55;55.10
57192;BME280;43052;52.588;13.396;2023-01-28T13:19:56;102353.91;;;3.61;55.10
57192;BME280;43052;52.588;13.396;2023-01-28T13:22:29;102347.41;;;3.69;54.90
57192;BME280;43052;52.588;13.396;2023-01-28T13:24:55;102348.00;;;3.82;55.03
57192;BME280;43052;52.588;13.396;2023-01-28T13:27:23;102349.25;;;3.90;54.61
57192;BME280;43052;52.588;13.396;2023-01-28T13:30:21;102346.06;;;3.96;54.44
57192;BME280;43052;52.588;13.396;2023-01-28T13:33:03;102340.81;;;3.94;54.28
57192;BME280;43052;52.588;13.396;2023-01-28T13:35:32;102342.16;;;3.86;53.95
57192;BME280;43052;52.588;13.396;2023-01-28T13:38:04;102352.06;;;3.76;53.90
57192;BME280;43052;52.588;13.396;2023-01-28T13:40:31;102344.53;;;3.63;54.00
57192;BME280;43052;52.588;13.396;2023-01-28T13:43:05;102343.72;;;3.64;53.65
57192;BME280;43052;52.588;13.396;2023-01-28T13:45:31;102340.63;;;3.71;53.48
57192;BME280;43052;52.588;13.396;2023-01-28T13:48:17;102326.94;;;3.74;52.91
57192;BME280;43052;52.588;13.396;2023-01-28T13:50:51;102340.56;;;3.70;52.33
57192;BME280;43052;52.588;13.396;2023-01-28T13:53:28;102337.59;;;3.62;52.60
57192;BME280;43052;52.588;13.396;2023-01-28T13:56:02;102337.81;;;3.67;52.80
57192;BME280;43052;52.588;13.396;2023-01-28T13:58:35;102323.59;;;3.76;52.26
57192;BME280;43052;52.588;13.396;2023-01-28T14:04:37;102333.00;;;3.74;51.58
57192;BME280;43052;52.588;13.396;2023-01-28T14:09:59;102317.97;;;3.85;51.75
57192;BME280;43052;52.588;13.396;2023-01-28T14:12:52;102320.69;;;3.88;52.05
57192;BME280;43052;52.588;13.396;2023-01-28T14:17:53;102316.69;;;3.95;52.59
57192;BME280;43052;52.588;13.396;2023-01-28T14:20:31;102324.41;;;3.94;52.52
57192;BME280;43052;52.588;13.396;2023-01-28T14:23:03;102322.94;;;3.81;52.72
57192;BME280;43052;52.588;13.396;2023-01-28T14:25:39;102322.22;;;3.65;52.83
57192;BME280;43052;52.588;13.396;2023-01-28T14:28:14;102331.22;;;3.55;52.91
57192;BME280;43052;52.588;13.396;2023-01-28T14:30:51;102342.38;;;3.36;53.28
57192;BME280;43052;52.588;13.396;2023-01-28T14:33:18;102349.59;;;3.25;53.65
57192;BME280;43052;52.588;13.396;2023-01-28T14:35:47;102345.66;;;3.16;53.54
57192;BME280;43052;52.588;13.396;2023-01-28T14:38:16;102338.13;;;3.20;53.42
57192;BME280;43052;52.588;13.396;2023-01-28T14:40:43;102344.19;;;3.21;53.50
57192;BME280;43052;52.588;13.396;2023-01-28T14:43:15;102351.63;;;3.14;53.20
57192;BME280;43052;52.588;13.396;2023-01-28T14:45:57;102347.03;;;3.09;53.34
57192;BME280;43052;52.588;13.396;2023-01-28T14:48:51;102350.78;;;2.97;53.38
57192;BME280;43052;52.588;13.396;2023-01-28T14:51:38;102349.88;;;2.97;53.67
57192;BME280;43052;52.588;13.396;2023-01-28T14:54:19;102355.50;;;2.88;53.69
57192;BME280;43052;52.588;13.396;2023-01-28T14:59:47;102348.38;;;2.84;54.03
57192;BME280;43052;52.588;13.396;2023-01-28T15:02:22;102345.78;;;2.84;53.84
57192;BME280;43052;52.588;13.396;2023-01-28T15:04:49;102351.94;;;2.86;54.12
57192;BME280;43052;52.588;13.396;2023-01-28T15:07:25;102351.75;;;2.83;53.76
57192;BME280;43052;52.588;13.396;2023-01-28T15:10:05;102357.66;;;2.80;54.02
57192;BME280;43052;52.588;13.396;2023-01-28T15:12:37;102345.78;;;2.84;54.00
57192;BME280;43052;52.588;13.396;2023-01-28T15:15:13;102347.44;;;2.82;54.00
57192;BME280;43052;52.588;13.396;2023-01-28T15:17:42;102343.78;;;2.78;54.39
57192;BME280;43052;52.588;13.396;2023-01-28T15:20:08;102344.38;;;2.73;54.54
57192;BME280;43052;52.588;13.396;2023-01-28T15:22:37;102348.44;;;2.69;54.50
57192;BME280;43052;52.588;13.396;2023-01-28T15:25:19;102336.44;;;2.70;54.49
57192;BME280;43052;52.588;13.396;2023-01-28T15:27:53;102344.38;;;2.73;54.49
57192;BME280;43052;52.588;13.396;2023-01-28T15:30:25;102346.78;;;2.70;54.65
57192;BME280;43052;52.588;13.396;2023-01-28T15:33:13;102348.44;;;2.69;54.74
57192;BME280;43052;52.588;13.396;2023-01-28T15:35:49;102340.72;;;2.69;54.63
57192;BME280;43052;52.588;13.396;2023-01-28T15:38:15;102339.66;;;2.65;54.71
57192;BME280;43052;52.588;13.396;2023-01-28T15:40:43;102342.84;;;2.60;54.64
57192;BME280;43052;52.588;13.396;2023-01-28T15:43:30;102356.38;;;2.56;55.11
57192;BME280;43052;52.588;13.396;2023-01-28T15:45:57;102358.22;;;2.58;55.39
57192;BME280;43052;52.588;13.396;2023-01-28T15:48:25;102361.53;;;2.56;55.39
57192;BME280;43052;52.588;13.396;2023-01-28T15:51:28;102361.47;;;2.38;55.70
57192;BME280;43052;52.588;13.396;2023-01-28T15:54:07;102364.25;;;2.26;55.87
57192;BME280;43052;52.588;13.396;2023-01-28T15:56:44;102361.53;;;2.23;55.99
57192;BME280;43052;52.588;13.396;2023-01-28T15:59:26;102365.97;;;2.25;55.93
57192;BME280;43052;52.588;13.396;2023-01-28T16:02:21;102382.47;;;2.12;55.44
57192;BME280;43052;52.588;13.396;2023-01-28T16:04:57;102379.31;;;2.01;55.41
57192;BME280;43052;52.588;13.396;2023-01-28T16:07:24;102386.59;;;1.94;55.88
57192;BME280;43052;52.588;13.396;2023-01-28T16:09:51;102398.19;;;1.85;55.67
57192;BME280;43052;52.588;13.396;2023-01-28T16:12:18;102384.31;;;1.83;55.97
57192;BME280;43052;52.588;13.396;2023-01-28T16:14:49;102385.81;;;1.80;56.09
57192;BME280;43052;52.588;13.396;2023-01-28T16:17:18;102394.63;;;1.83;55.81
57192;BME280;43052;52.588;13.396;2023-01-28T16:19:46;102387.63;;;1.81;55.75
57192;BME280;43052;52.588;13.396;2023-01-28T16:22:21;102372.22;;;1.82;56.41
57192;BME280;43052;52.588;13.396;2023-01-28T16:24:52;102350.94;;;1.86;56.19
57192;BME280;43052;52.588;13.396;2023-01-28T16:27:23;102357.28;;;1.77;56.05
57192;BME280;43052;52.588;13.396;2023-01-28T16:29:48;102367.19;;;1.69;56.23
57192;BME280;43052;52.588;13.396;2023-01-28T16:34:58;102364.25;;;1.63;56.19
57192;BME280;43052;52.588;13.396;2023-01-28T16:37:24;102369.94;;;1.57;56.27
57192;BME280;43052;52.588;13.396;2023-01-28T16:39:49;102384.44;;;1.55;56.67
57192;BME280;43052;52.588;13.396;2023-01-28T16:42:14;102385.16;;;1.52;56.68
57192;BME280;43052;52.588;13.396;2023-01-28T16:44:40;102386.13;;;1.54;56.48
57192;BME280;43052;52.588;13.396;2023-01-28T16:47:06;102381.13;;;1.58;56.64
57192;BME280;43052;52.588;13.396;2023-01-28T16:49:32;102382.31;;;1.63;56.77
57192;BME280;43052;52.588;13.396;2023-01-28T16:51:57;102387.72;;;1.67;56.48
57192;BME280;43052;52.588;13.396;2023-01-28T16:54:22;102393.69;;;1.66;56.26
57192;BME280;43052;52.588;13.396;2023-01-28T16:56:48;102399.91;;;1.70;56.58
57192;BME280;43052;52.588;13.396;2023-01-28T16:59:14;102404.16;;;1.69;56.35
57192;BME280;43052;52.588;13.396;2023-01-28T17:01:40;102401.25;;;1.63;56.78
57192;BME280;43052;52.588;13.396;2023-01-28T17:04:05;102399.38;;;1.61;56.82
57192;BME280;43052;52.588;13.396;2023-01-28T17:06:35;102410.41;;;1.58;56.85
57192;BME280;43052;52.588;13.396;2023-01-28T17:09:06;102416.09;;;1.52;56.58
57192;BME280;43052;52.588;13.396;2023-01-28T17:11:32;102421.41;;;1.55;56.38
57192;BME280;43052;52.588;13.396;2023-01-28T17:13:58;102415.38;;;1.55;56.46
57192;BME280;43052;52.588;13.396;2023-01-28T17:16:23;102422.59;;;1.61;56.87
57192;BME280;43052;52.588;13.396;2023-01-28T17:18:49;102421.94;;;1.65;56.75
57192;BME280;43052;52.588;13.396;2023-01-28T17:21:15;102429.53;;;1.62;56.72
57192;BME280;43052;52.588;13.396;2023-01-28T17:23:40;102433.44;;;1.55;56.89
57192;BME280;43052;52.588;13.396;2023-01-28T17:26:07;102443.47;;;1.50;57.03
57192;BME280;43052;52.588;13.396;2023-01-28T17:28:33;102446.13;;;1.52;57.03
57192;BME280;43052;52.588;13.396;2023-01-28T17:30:59;102437.59;;;1.53;57.03
57192;BME280;43052;52.588;13.396;2023-01-28T17:33:24;102441.63;;;1.63;57.27
57192;BME280;43052;52.588;13.396;2023-01-28T17:35:49;102444.28;;;1.64;56.74
57192;BME280;43052;52.588;13.396;2023-01-28T17:38:14;102440.72;;;1.62;56.38
57192;BME280;43052;52.588;13.396;2023-01-28T17:40:40;102419.03;;;1.59;56.93
57192;BME280;43052;52.588;13.396;2023-01-28T17:43:05;102417.16;;;1.56;56.85
57192;BME280;43052;52.588;13.396;2023-01-28T17:45:30;102427.22;;;1.51;57.01
57192;BME280;43052;52.588;13.396;2023-01-28T17:47:56;102435.47;;;1.46;57.02
57192;BME280;43052;52.588;13.396;2023-01-28T17:50:21;102424.19;;;1.44;57.09
57192;BME280;43052;52.588;13.396;2023-01-28T17:52:46;102420.59;;;1.41;57.00
57192;BME280;43052;52.588;13.396;2023-01-28T17:55:12;102409.22;;;1.38;57.00
57192;BME280;43052;52.588;13.396;2023-01-28T17:57:37;102415.03;;;1.34;57.18
57192;BME280;43052;52.588;13.396;2023-01-28T18:00:04;102423.72;;;1.21;57.17
57192;BME280;43052;52.588;13.396;2023-01-28T18:02:29;102433.13;;;1.05;57.61
57192;BME280;43052;52.588;13.396;2023-01-28T18:04:54;102431.66;;;0.96;57.83
57192;BME280;43052;52.588;13.396;2023-01-28T18:07:20;102437.16;;;0.87;58.03
57192;BME280;43052;52.588;13.396;2023-01-28T18:09:45;102433.03;;;0.75;58.17
57192;BME280;43052;52.588;13.396;2023-01-28T18:12:13;102427.38;;;0.68;58.31
57192;BME280;43052;52.588;13.396;2023-01-28T18:14:39;102413.16;;;0.59;58.38
57192;BME280;43052;52.588;13.396;2023-01-28T18:17:05;102408.94;;;0.46;58.81
57192;BME280;43052;52.588;13.396;2023-01-28T18:19:33;102421.34;;;0.39;58.89
57192;BME280;43052;52.588;13.396;2023-01-28T18:21:59;102423.03;;;0.25;59.31
57192;BME280;43052;52.588;13.396;2023-01-28T18:24:27;102413.75;;;0.13;59.29
57192;BME280;43052;52.588;13.396;2023-01-28T18:26:54;102415.81;;;0.06;59.52
57192;BME280;43052;52.588;13.396;2023-01-28T18:29:22;102414.25;;;-0.06;59.60
57192;BME280;43052;52.588;13.396;2023-01-28T18:31:49;102426.41;;;-0.17;59.72
57192;BME280;43052;52.588;13.396;2023-01-28T18:34:14;102423.22;;;-0.26;60.31
57192;BME280;43052;52.588;13.396;2023-01-28T18:36:40;102425.19;;;-0.35;60.60
57192;BME280;43052;52.588;13.396;2023-01-28T18:39:09;102422.91;;;-0.44;60.82
57192;BME280;43052;52.588;13.396;2023-01-28T18:41:36;102422.84;;;-0.45;61.28
57192;BME280;43052;52.588;13.396;2023-01-28T18:44:01;102422.72;;;-0.47;61.28
57192;BME280;43052;52.588;13.396;2023-01-28T18:46:26;102420.44;;;-0.42;61.57
57192;BME280;43052;52.588;13.396;2023-01-28T18:48:52;102418.31;;;-0.36;61.65
57192;BME280;43052;52.588;13.396;2023-01-28T18:51:17;102424.72;;;-0.29;61.79
57192;BME280;43052;52.588;13.396;2023-01-28T18:53:42;102426.41;;;-0.17;61.94
57192;BME280;43052;52.588;13.396;2023-01-28T18:56:08;102428.69;;;-0.08;61.69
57192;BME280;43052;52.588;13.396;2023-01-28T18:58:33;102437.00;;;0.02;61.73
57192;BME280;43052;52.588;13.396;2023-01-28T19:00:59;102430.06;;;0.14;61.67
57192;BME280;43052;52.588;13.396;2023-01-28T19:03:24;102420.47;;;0.25;61.68
57192;BME280;43052;52.588;13.396;2023-01-28T19:05:50;102412.41;;;0.34;61.58
57192;BME280;43052;52.588;13.396;2023-01-28T19:08:16;102411.91;;;0.39;61.41
57192;BME280;43052;52.588;13.396;2023-01-28T19:10:41;102410.50;;;0.44;61.19
57192;BME280;43052;52.588;13.396;2023-01-28T19:13:06;102414.38;;;0.51;61.47
57192;BME280;43052;52.588;13.396;2023-01-28T19:15:32;102408.63;;;0.55;61.10
57192;BME280;43052;52.588;13.396;2023-01-28T19:17:57;102408.13;;;0.61;61.25
57192;BME280;43052;52.588;13.396;2023-01-28T19:20:23;102421.28;;;0.66;60.80
57192;BME280;43052;52.588;13.396;2023-01-28T19:22:48;102423.44;;;0.73;61.11
57192;BME280;43052;52.588;13.396;2023-01-28T19:25:13;102426.38;;;0.79;61.07
57192;BME280;43052;52.588;13.396;2023-01-28T19:27:40;102416.78;;;0.76;60.63
57192;BME280;43052;52.588;13.396;2023-01-28T19:30:05;102408.78;;;0.72;60.58
57192;BME280;43052;52.588;13.396;2023-01-28T19:32:32;102405.13;;;0.68;60.59
57192;BME280;43052;52.588;13.396;2023-01-28T19:34:58;102407.56;;;0.67;60.83
57192;BME280;43052;52.588;13.396;2023-01-28T19:37:23;102399.78;;;0.65;60.92
57192;BME280;43052;52.588;13.396;2023-01-28T19:39:48;102413.63;;;0.67;60.98
57192;BME280;43052;52.588;13.396;2023-01-28T19:42:14;102414.34;;;0.65;60.94
57192;BME280;43052;52.588;13.396;2023-01-28T19:44:39;102413.34;;;0.62;60.86
57192;BME280;43052;52.588;13.396;2023-01-28T19:47:04;102419.50;;;0.65;60.89
57192;BME280;43052;52.588;13.396;2023-01-28T19:49:30;102418.78;;;0.67;61.06
57192;BME280;43052;52.588;13.396;2023-01-28T19:51:55;102420.56;;;0.68;61.00
57192;BME280;43052;52.588;13.396;2023-01-28T19:54:21;102420.66;;;0.70;60.67
57192;BME280;43052;52.588;13.396;2023-01-28T19:56:46;102429.44;;;0.73;60.66
57192;BME280;43052;52.588;13.396;2023-01-28T19:59:11;102427.00;;;0.75;60.69
57192;BME280;43052;52.588;13.396;2023-01-28T20:01:39;102435.50;;;0.74;60.30
57192;BME280;43052;52.588;13.396;2023-01-28T20:04:04;102439.00;;;0.61;60.80
57192;BME280;43052;52.588;13.396;2023-01-28T20:06:30;102450.78;;;0.57;60.81
57192;BME280;43052;52.588;13.396;2023-01-28T20:09:00;102455.25;;;0.60;60.83
57192;BME280;43052;52.588;13.396;2023-01-28T20:11:26;102457.91;;;0.61;60.96
57192;BME280;43052;52.588;13.396;2023-01-28T20:13:51;102445.84;;;0.60;60.91
57192;BME280;43052;52.588;13.396;2023-01-28T20:16:21;102443.06;;;0.57;61.04
57192;BME280;43052;52.588;13.396;2023-01-28T20:18:51;102427.94;;;0.49;60.88
57192;BME280;43052;52.588;13.396;2023-01-28T20:21:18;102424.28;;;0.45;60.92
57192;BME280;43052;52.588;13.396;2023-01-28T20:23:45;102430.66;;;0.37;61.04
57192;BME280;43052;52.588;13.396;2023-01-28T20:26:11;102430.84;;;0.26;61.18
57192;BME280;43052;52.588;13.396;2023-01-28T20:28:36;102420.47;;;0.11;61.55
57192;BME280;43052;52.588;13.396;2023-01-28T20:31:06;102415.44;;;-0.01;61.67
57192;BME280;43052;52.588;13.396;2023-01-28T20:33:32;102415.84;;;-0.08;61.70
57192;BME280;43052;52.588;13.396;2023-01-28T20:36:05;102406.53;;;-0.19;61.95
57192;BME280;43052;52.588;13.396;2023-01-28T20:38:34;102407.00;;;-0.25;62.17
57192;BME280;43052;52.588;13.396;2023-01-28T20:41:22;102411.97;;;-0.28;62.28
57192;BME280;43052;52.588;13.396;2023-01-28T20:43:49;102410.28;;;-0.27;62.25
57192;BME280;43052;52.588;13.396;2023-01-28T20:46:17;102418.09;;;-0.26;62.54
57192;BME280;43052;52.588;13.396;2023-01-28T20:48:44;102417.41;;;-0.23;62.91
57192;BME280;43052;52.588;13.396;2023-01-28T20:51:11;102414.06;;;-0.22;62.93
57192;BME280;43052;52.588;13.396;2023-01-28T20:53:37;102415.16;;;-0.19;62.85
57192;BME280;43052;52.588;13.396;2023-01-28T20:56:03;102412.75;;;-0.16;62.69
57192;BME280;43052;52.588;13.396;2023-01-28T20:58:29;102410.31;;;-0.14;62.78
57192;BME280;43052;52.588;13.396;2023-01-28T21:00:54;102407.31;;;-0.20;62.63
57192;BME280;43052;52.588;13.396;2023-01-28T21:03:20;102413.63;;;-0.28;62.71
57192;BME280;43052;52.588;13.396;2023-01-28T21:05:46;102432.03;;;-0.36;62.91
57192;BME280;43052;52.588;13.396;2023-01-28T21:08:12;102418.34;;;-0.48;63.36
57192;BME280;43052;52.588;13.396;2023-01-28T21:10:38;102416.16;;;-0.55;63.29
57192;BME280;43052;52.588;13.396;2023-01-28T21:13:05;102403.41;;;-0.67;63.60
57192;BME280;43052;52.588;13.396;2023-01-28T21:15:30;102409.78;;;-0.74;63.95
57192;BME280;43052;52.588;13.396;2023-01-28T21:17:55;102407.81;;;-0.78;64.00
57192;BME280;43052;52.588;13.396;2023-01-28T21:20:20;102410.09;;;-0.83;63.87
57192;BME280;43052;52.588;13.396;2023-01-28T21:22:55;102396.53;;;-0.93;64.22
57192;BME280;43052;52.588;13.396;2023-01-28T21:25:20;102393.28;;;-0.91;64.15
57192;BME280;43052;52.588;13.396;2023-01-28T21:27:47;102395.31;;;-0.99;63.96
57192;BME280;43052;52.588;13.396;2023-01-28T21:30:13;102404.47;;;-1.02;64.34
57192;BME280;43052;52.588;13.396;2023-01-28T21:32:38;102399.03;;;-1.07;64.72
57192;BME280;43052;52.588;13.396;2023-01-28T21:35:04;102401.50;;;-1.08;64.56
57192;BME280;43052;52.588;13.396;2023-01-28T21:37:29;102405.84;;;-1.07;64.88
57192;BME280;43052;52.588;13.396;2023-01-28T21:39:54;102407.75;;;-1.05;64.92
57192;BME280;43052;52.588;13.396;2023-01-28T21:42:20;102397.88;;;-0.99;65.17
57192;BME280;43052;52.588;13.396;2023-01-28T21:44:46;102385.25;;;-0.96;65.32
57192;BME280;43052;52.588;13.396;2023-01-28T21:47:11;102402.63;;;-0.91;65.06
57192;BME280;43052;52.588;13.396;2023-01-28T21:49:37;102391.69;;;-0.89;65.04
57192;BME280;43052;52.588;13.396;2023-01-28T21:52:03;102402.06;;;-0.87;65.08
57192;BME280;43052;52.588;13.396;2023-01-28T21:54:28;102398.41;;;-0.91;65.49
57192;BME280;43052;52.588;13.396;2023-01-28T21:56:53;102390.16;;;-0.99;65.65
57192;BME280;43052;52.588;13.396;2023-01-28T21:59:19;102386.59;;;-1.01;65.95
57192;BME280;43052;52.588;13.396;2023-01-28T22:02:02;102389.16;;;-1.01;66.14
57192;BME280;43052;52.588;13.396;2023-01-28T22:04:30;102395.25;;;-0.87;65.74
57192;BME280;43052;52.588;13.396;2023-01-28T22:06:56;102393.41;;;-0.76;65.45
57192;BME280;43052;52.588;13.396;2023-01-28T22:09:22;102381.75;;;-0.71;65.49
57192;BME280;43052;52.588;13.396;2023-01-28T22:11:47;102382.94;;;-0.66;65.56
57192;BME280;43052;52.588;13.396;2023-01-28T22:14:13;102376.44;;;-0.60;65.56
57192;BME280;43052;52.588;13.396;2023-01-28T22:16:38;102373.78;;;-0.62;65.27
57192;BME280;43052;52.588;13.396;2023-01-28T22:19:04;102369.50;;;-0.61;65.62
57192;BME280;43052;52.588;13.396;2023-01-28T22:21:29;102371.28;;;-0.60;65.65
57192;BME280;43052;52.588;13.396;2023-01-28T22:23:55;102371.59;;;-0.56;65.58
57192;BME280;43052;52.588;13.396;2023-01-28T22:26:20;102381.22;;;-0.40;65.72
57192;BME280;43052;52.588;13.396;2023-01-28T22:28:45;102374.97;;;-0.30;65.42
57192;BME280;43052;52.588;13.396;2023-01-28T22:31:13;102378.84;;;-0.23;65.03
57192;BME280;43052;52.588;13.396;2023-01-28T22:33:39;102367.47;;;-0.27;65.35
57192;BME280;43052;52.588;13.396;2023-01-28T22:36:06;102368.34;;;-0.26;65.28
57192;BME280;43052;52.588;13.396;2023-01-28T22:38:33;102378.72;;;-0.25;65.37
57192;BME280;43052;52.588;13.396;2023-01-28T22:41:08;102379.81;;;-0.21;65.19
57192;BME280;43052;52.588;13.396;2023-01-28T22:43:34;102379.13;;;-0.05;65.22
57192;BME280;43052;52.588;13.396;2023-01-28T22:46:01;102373.78;;;0.05;64.92
57192;BME280;43052;52.588;13.396;2023-01-28T22:48:26;102365.94;;;0.17;64.64
57192;BME280;43052;52.588;13.396;2023-01-28T22:50:52;102359.66;;;0.27;64.52
57192;BME280;43052;52.588;13.396;2023-01-28T22:53:17;102356.31;;;0.28;64.53
57192;BME280;43052;52.588;13.396;2023-01-28T22:55:42;102358.88;;;0.28;64.38